sensor_id;sensor_type;location;lat;lon;timestamp;P1;durP1;ratioP1;P2;durP2;ratioP2
20559;SDS011;10438;51.454;6.718;2023-09-30T00:00:59;23.93;;;6.20;;
20559;SDS011;10438;51.454;6.718;2023-09-30T00:03:25;21.87;;;6.20;;
20559;SDS011;10438;51.454;6.718;2023-09-30T00:05:51;22.33;;;6.73;;
20559;SDS011;10438;51.454;6.718;2023-09-30T00:08:16;21.63;;;6.70;;
20559;SDS011;10438;51.454;6.718;2023-09-30T00:10:42;18.10;;;5.47;;
20559;SDS011;10438;51.454;6.718;2023-09-30T00:13:07;16.63;;;5.73;;
20559;SDS011;10438;51.454;6.718;2023-09-30T00:15:33;23.53;;;6.47;;
20559;SDS011;10438;51.454;6.718;2023-09-30T00:17:59;20.90;;;6.23;;
20559;SDS011;10438;51.454;6.718;2023-09-30T00:20:26;20.47;;;6.73;;
20559;SDS011;10438;51.454;6.718;2023-09-30T00:22:55;21.83;;;7.10;;
20559;SDS011;10438;51.454;6.718;2023-09-30T00:25:20;22.20;;;5.97;;
20559;SDS011;10438;51.454;6.718;2023-09-30T00:27:46;25.33;;;6.63;;
20559;SDS011;10438;51.454;6.718;2023-09-30T00:30:12;15.63;;;5.97;;
20559;SDS011;10438;51.454;6.718;2023-09-30T00:32:38;21.47;;;6.90;;
20559;SDS011;10438;51.454;6.718;2023-09-30T00:35:04;29.27;;;7.13;;
20559;SDS011;10438;51.454;6.718;2023-09-30T00:37:36;29.13;;;6.90;;
20559;SDS011;10438;51.454;6.718;2023-09-30T00:40:06;20.00;;;7.60;;
20559;SDS011;10438;51.454;6.718;2023-09-30T00:42:36;22.93;;;7.43;;
20559;SDS011;10438;51.454;6.718;2023-09-30T00:45:06;26.93;;;7.57;;
20559;SDS011;10438;51.454;6.718;2023-09-30T00:47:34;22.30;;;8.47;;
20559;SDS011;10438;51.454;6.718;2023-09-30T00:50:01;22.57;;;8.40;;
20559;SDS011;10438;51.454;6.718;2023-09-30T00:52:28;26.43;;;8.10;;
20559;SDS011;10438;51.454;6.718;2023-09-30T00:54:56;25.23;;;7.87;;
20559;SDS011;10438;51.454;6.718;2023-09-30T00:57:22;23.40;;;7.53;;
20559;SDS011;10438;51.454;6.718;2023-09-30T00:59:50;24.23;;;8.37;;
20559;SDS011;10438;51.454;6.718;2023-09-30T01:02:17;18.70;;;7.30;;
20559;SDS011;10438;51.454;6.718;2023-09-30T01:04:43;24.77;;;9.07;;
20559;SDS011;10438;51.454;6.718;2023-09-30T01:07:09;19.67;;;7.40;;
20559;SDS011;10438;51.454;6.718;2023-09-30T01:09:36;19.97;;;7.90;;
20559;SDS011;10438;51.454;6.718;2023-09-30T01:12:01;20.63;;;7.00;;
20559;SDS011;10438;51.454;6.718;2023-09-30T01:14:28;25.60;;;7.63;;
20559;SDS011;10438;51.454;6.718;2023-09-30T01:16:55;30.00;;;7.03;;
20559;SDS011;10438;51.454;6.718;2023-09-30T01:19:22;20.70;;;7.30;;
20559;SDS011;10438;51.454;6.718;2023-09-30T01:21:52;29.60;;;7.30;;
20559;SDS011;10438;51.454;6.718;2023-09-30T01:24:20;21.30;;;6.53;;
20559;SDS011;10438;51.454;6.718;2023-09-30T01:26:45;27.47;;;7.20;;
20559;SDS011;10438;51.454;6.718;2023-09-30T01:29:11;21.27;;;7.27;;
20559;SDS011;10438;51.454;6.718;2023-09-30T01:31:37;21.80;;;7.90;;
20559;SDS011;10438;51.454;6.718;2023-09-30T01:34:03;28.93;;;7.77;;
20559;SDS011;10438;51.454;6.718;2023-09-30T01:36:29;23.40;;;6.93;;
20559;SDS011;10438;51.454;6.718;2023-09-30T01:38:54;26.17;;;7.90;;
20559;SDS011;10438;51.454;6.718;2023-09-30T01:41:20;21.33;;;7.40;;
20559;SDS011;10438;51.454;6.718;2023-09-30T01:43:46;22.80;;;7.40;;
20559;SDS011;10438;51.454;6.718;2023-09-30T01:46:12;25.73;;;8.23;;
20559;SDS011;10438;51.454;6.718;2023-09-30T01:48:37;22.60;;;7.13;;
20559;SDS011;10438;51.454;6.718;2023-09-30T01:51:03;30.00;;;8.77;;
20559;SDS011;10438;51.454;6.718;2023-09-30T01:53:29;26.13;;;8.00;;
20559;SDS011;10438;51.454;6.718;2023-09-30T01:55:54;19.03;;;6.53;;
20559;SDS011;10438;51.454;6.718;2023-09-30T01:58:20;27.17;;;9.07;;
20559;SDS011;10438;51.454;6.718;2023-09-30T02:00:45;28.63;;;7.43;;
20559;SDS011;10438;51.454;6.718;2023-09-30T02:03:11;24.93;;;8.17;;
20559;SDS011;10438;51.454;6.718;2023-09-30T02:05:38;28.23;;;7.80;;
20559;SDS011;10438;51.454;6.718;2023-09-30T02:08:04;21.10;;;6.60;;
20559;SDS011;10438;51.454;6.718;2023-09-30T02:10:31;23.67;;;6.70;;
20559;SDS011;10438;51.454;6.718;2023-09-30T02:12:58;19.90;;;5.93;;
20559;SDS011;10438;51.454;6.718;2023-09-30T02:15:24;20.03;;;5.87;;
20559;SDS011;10438;51.454;6.718;2023-09-30T02:17:50;18.37;;;6.03;;
20559;SDS011;10438;51.454;6.718;2023-09-30T02:20:16;22.30;;;5.90;;
20559;SDS011;10438;51.454;6.718;2023-09-30T02:22:45;27.40;;;6.73;;
20559;SDS011;10438;51.454;6.718;2023-09-30T02:25:11;20.20;;;5.77;;
20559;SDS011;10438;51.454;6.718;2023-09-30T02:27:38;30.30;;;5.93;;
20559;SDS011;10438;51.454;6.718;2023-09-30T02:30:06;17.50;;;4.90;;
20559;SDS011;10438;51.454;6.718;2023-09-30T02:32:32;24.70;;;6.00;;
20559;SDS011;10438;51.454;6.718;2023-09-30T02:34:58;22.23;;;6.03;;
20559;SDS011;10438;51.454;6.718;2023-09-30T02:37:24;21.33;;;5.97;;
20559;SDS011;10438;51.454;6.718;2023-09-30T02:39:50;20.73;;;6.23;;
20559;SDS011;10438;51.454;6.718;2023-09-30T02:42:15;22.87;;;7.00;;
20559;SDS011;10438;51.454;6.718;2023-09-30T02:44:41;22.40;;;6.57;;
20559;SDS011;10438;51.454;6.718;2023-09-30T02:47:07;24.60;;;7.47;;
20559;SDS011;10438;51.454;6.718;2023-09-30T02:49:33;26.03;;;7.53;;
20559;SDS011;10438;51.454;6.718;2023-09-30T02:51:59;29.43;;;7.20;;
20559;SDS011;10438;51.454;6.718;2023-09-30T02:54:24;18.80;;;6.50;;
20559;SDS011;10438;51.454;6.718;2023-09-30T02:56:50;22.77;;;8.03;;
20559;SDS011;10438;51.454;6.718;2023-09-30T02:59:17;21.53;;;6.20;;
20559;SDS011;10438;51.454;6.718;2023-09-30T03:01:43;19.33;;;6.30;;
20559;SDS011;10438;51.454;6.718;2023-09-30T03:04:09;19.90;;;6.50;;
20559;SDS011;10438;51.454;6.718;2023-09-30T03:06:37;24.37;;;6.70;;
20559;SDS011;10438;51.454;6.718;2023-09-30T03:09:03;23.20;;;6.20;;
20559;SDS011;10438;51.454;6.718;2023-09-30T03:11:29;21.77;;;6.53;;
20559;SDS011;10438;51.454;6.718;2023-09-30T03:13:56;25.63;;;6.67;;
20559;SDS011;10438;51.454;6.718;2023-09-30T03:16:22;19.67;;;7.13;;
20559;SDS011;10438;51.454;6.718;2023-09-30T03:18:49;20.13;;;6.07;;
20559;SDS011;10438;51.454;6.718;2023-09-30T03:21:15;17.63;;;6.30;;
20559;SDS011;10438;51.454;6.718;2023-09-30T03:23:41;22.83;;;7.83;;
20559;SDS011;10438;51.454;6.718;2023-09-30T03:26:07;23.27;;;7.20;;
20559;SDS011;10438;51.454;6.718;2023-09-30T03:28:35;19.77;;;7.30;;
20559;SDS011;10438;51.454;6.718;2023-09-30T03:31:02;23.93;;;7.30;;
20559;SDS011;10438;51.454;6.718;2023-09-30T03:33:29;18.00;;;7.57;;
20559;SDS011;10438;51.454;6.718;2023-09-30T03:35:59;23.83;;;8.23;;
20559;SDS011;10438;51.454;6.718;2023-09-30T03:38:25;22.63;;;7.93;;
20559;SDS011;10438;51.454;6.718;2023-09-30T03:40:51;26.13;;;8.03;;
20559;SDS011;10438;51.454;6.718;2023-09-30T03:43:19;25.73;;;8.17;;
20559;SDS011;10438;51.454;6.718;2023-09-30T03:45:46;18.87;;;8.00;;
20559;SDS011;10438;51.454;6.718;2023-09-30T03:48:11;25.43;;;7.33;;
20559;SDS011;10438;51.454;6.718;2023-09-30T03:50:37;24.80;;;8.00;;
20559;SDS011;10438;51.454;6.718;2023-09-30T03:53:03;24.37;;;8.47;;
20559;SDS011;10438;51.454;6.718;2023-09-30T03:55:32;25.87;;;9.17;;
20559;SDS011;10438;51.454;6.718;2023-09-30T03:57:58;27.63;;;8.67;;
20559;SDS011;10438;51.454;6.718;2023-09-30T04:00:24;24.90;;;7.63;;
20559;SDS011;10438;51.454;6.718;2023-09-30T04:02:50;25.57;;;8.50;;
20559;SDS011;10438;51.454;6.718;2023-09-30T04:05:20;29.37;;;8.47;;
20559;SDS011;10438;51.454;6.718;2023-09-30T04:07:51;25.70;;;8.70;;
20559;SDS011;10438;51.454;6.718;2023-09-30T04:10:16;22.50;;;8.47;;
20559;SDS011;10438;51.454;6.718;2023-09-30T04:12:42;23.10;;;9.10;;
20559;SDS011;10438;51.454;6.718;2023-09-30T04:15:08;26.70;;;8.80;;
20559;SDS011;10438;51.454;6.718;2023-09-30T04:17:36;28.10;;;8.90;;
20559;SDS011;10438;51.454;6.718;2023-09-30T04:20:03;28.67;;;8.90;;
20559;SDS011;10438;51.454;6.718;2023-09-30T04:22:41;28.10;;;9.47;;
20559;SDS011;10438;51.454;6.718;2023-09-30T04:25:11;27.13;;;10.00;;
20559;SDS011;10438;51.454;6.718;2023-09-30T04:27:37;30.37;;;9.60;;
20559;SDS011;10438;51.454;6.718;2023-09-30T04:30:03;22.83;;;10.27;;
20559;SDS011;10438;51.454;6.718;2023-09-30T04:32:37;26.40;;;10.47;;
20559;SDS011;10438;51.454;6.718;2023-09-30T04:35:06;31.13;;;10.53;;
20559;SDS011;10438;51.454;6.718;2023-09-30T04:37:35;38.40;;;11.93;;
20559;SDS011;10438;51.454;6.718;2023-09-30T04:40:05;29.13;;;11.00;;
20559;SDS011;10438;51.454;6.718;2023-09-30T04:42:40;30.37;;;11.57;;
20559;SDS011;10438;51.454;6.718;2023-09-30T04:45:07;26.63;;;11.37;;
20559;SDS011;10438;51.454;6.718;2023-09-30T04:47:35;27.03;;;11.23;;
20559;SDS011;10438;51.454;6.718;2023-09-30T04:50:00;27.07;;;11.23;;
20559;SDS011;10438;51.454;6.718;2023-09-30T04:52:32;27.70;;;11.60;;
20559;SDS011;10438;51.454;6.718;2023-09-30T04:54:58;23.80;;;9.37;;
20559;SDS011;10438;51.454;6.718;2023-09-30T04:57:25;26.50;;;10.70;;
20559;SDS011;10438;51.454;6.718;2023-09-30T04:59:51;24.60;;;11.93;;
20559;SDS011;10438;51.454;6.718;2023-09-30T05:02:16;35.77;;;13.60;;
20559;SDS011;10438;51.454;6.718;2023-09-30T05:04:42;33.97;;;11.77;;
20559;SDS011;10438;51.454;6.718;2023-09-30T05:07:08;40.90;;;12.33;;
20559;SDS011;10438;51.454;6.718;2023-09-30T05:09:33;28.57;;;11.40;;
20559;SDS011;10438;51.454;6.718;2023-09-30T05:11:59;33.97;;;11.57;;
20559;SDS011;10438;51.454;6.718;2023-09-30T05:14:25;35.57;;;11.93;;
20559;SDS011;10438;51.454;6.718;2023-09-30T05:16:50;28.20;;;10.93;;
20559;SDS011;10438;51.454;6.718;2023-09-30T05:19:16;35.90;;;11.33;;
20559;SDS011;10438;51.454;6.718;2023-09-30T05:21:41;30.77;;;12.00;;
20559;SDS011;10438;51.454;6.718;2023-09-30T05:24:07;34.73;;;11.40;;
20559;SDS011;10438;51.454;6.718;2023-09-30T05:26:33;37.70;;;12.83;;
20559;SDS011;10438;51.454;6.718;2023-09-30T05:28:59;39.77;;;14.40;;
20559;SDS011;10438;51.454;6.718;2023-09-30T05:31:24;39.90;;;15.10;;
20559;SDS011;10438;51.454;6.718;2023-09-30T05:33:50;41.77;;;15.97;;
20559;SDS011;10438;51.454;6.718;2023-09-30T05:36:16;45.93;;;15.13;;
20559;SDS011;10438;51.454;6.718;2023-09-30T05:38:41;40.30;;;16.13;;
20559;SDS011;10438;51.454;6.718;2023-09-30T05:41:07;37.33;;;14.13;;
20559;SDS011;10438;51.454;6.718;2023-09-30T05:43:33;37.40;;;14.73;;
20559;SDS011;10438;51.454;6.718;2023-09-30T05:45:59;36.67;;;14.57;;
20559;SDS011;10438;51.454;6.718;2023-09-30T05:48:24;35.97;;;15.50;;
20559;SDS011;10438;51.454;6.718;2023-09-30T05:50:50;40.07;;;15.30;;
20559;SDS011;10438;51.454;6.718;2023-09-30T05:53:15;40.77;;;15.13;;
20559;SDS011;10438;51.454;6.718;2023-09-30T05:55:41;34.07;;;15.17;;
20559;SDS011;10438;51.454;6.718;2023-09-30T05:58:14;34.50;;;14.07;;
20559;SDS011;10438;51.454;6.718;2023-09-30T06:00:43;33.73;;;13.40;;
20559;SDS011;10438;51.454;6.718;2023-09-30T06:03:09;31.07;;;14.03;;
20559;SDS011;10438;51.454;6.718;2023-09-30T06:05:38;45.03;;;15.17;;
20559;SDS011;10438;51.454;6.718;2023-09-30T06:08:05;44.53;;;13.33;;
20559;SDS011;10438;51.454;6.718;2023-09-30T06:10:33;32.37;;;11.90;;
20559;SDS011;10438;51.454;6.718;2023-09-30T06:13:00;47.83;;;13.77;;
20559;SDS011;10438;51.454;6.718;2023-09-30T06:15:27;36.43;;;12.67;;
20559;SDS011;10438;51.454;6.718;2023-09-30T06:17:53;36.63;;;14.97;;
20559;SDS011;10438;51.454;6.718;2023-09-30T06:20:22;35.83;;;15.13;;
20559;SDS011;10438;51.454;6.718;2023-09-30T06:22:51;36.37;;;15.10;;
20559;SDS011;10438;51.454;6.718;2023-09-30T06:25:18;43.37;;;16.97;;
20559;SDS011;10438;51.454;6.718;2023-09-30T06:27:45;33.33;;;15.07;;
20559;SDS011;10438;51.454;6.718;2023-09-30T06:30:12;38.07;;;16.03;;
20559;SDS011;10438;51.454;6.718;2023-09-30T06:32:39;37.43;;;16.73;;
20559;SDS011;10438;51.454;6.718;2023-09-30T06:35:05;47.70;;;23.23;;
20559;SDS011;10438;51.454;6.718;2023-09-30T06:37:32;39.10;;;17.50;;
20559;SDS011;10438;51.454;6.718;2023-09-30T06:39:57;41.73;;;19.33;;
20559;SDS011;10438;51.454;6.718;2023-09-30T06:42:24;36.47;;;18.07;;
20559;SDS011;10438;51.454;6.718;2023-09-30T06:44:50;43.37;;;17.73;;
20559;SDS011;10438;51.454;6.718;2023-09-30T06:47:15;42.40;;;19.17;;
20559;SDS011;10438;51.454;6.718;2023-09-30T06:49:41;42.13;;;19.40;;
20559;SDS011;10438;51.454;6.718;2023-09-30T06:52:06;55.20;;;18.03;;
20559;SDS011;10438;51.454;6.718;2023-09-30T06:54:32;42.80;;;19.13;;
20559;SDS011;10438;51.454;6.718;2023-09-30T06:56:58;47.87;;;19.07;;
20559;SDS011;10438;51.454;6.718;2023-09-30T06:59:23;47.90;;;20.77;;
20559;SDS011;10438;51.454;6.718;2023-09-30T07:01:50;53.30;;;20.97;;
20559;SDS011;10438;51.454;6.718;2023-09-30T07:04:16;50.90;;;20.80;;
20559;SDS011;10438;51.454;6.718;2023-09-30T07:06:41;50.43;;;21.07;;
20559;SDS011;10438;51.454;6.718;2023-09-30T07:09:07;49.07;;;21.37;;
20559;SDS011;10438;51.454;6.718;2023-09-30T07:11:32;52.67;;;21.70;;
20559;SDS011;10438;51.454;6.718;2023-09-30T07:13:58;49.50;;;21.30;;
20559;SDS011;10438;51.454;6.718;2023-09-30T07:16:24;46.10;;;21.70;;
20559;SDS011;10438;51.454;6.718;2023-09-30T07:18:49;43.80;;;21.00;;
20559;SDS011;10438;51.454;6.718;2023-09-30T07:21:18;46.30;;;22.03;;
20559;SDS011;10438;51.454;6.718;2023-09-30T07:23:43;45.10;;;21.87;;
20559;SDS011;10438;51.454;6.718;2023-09-30T07:26:09;43.60;;;21.93;;
20559;SDS011;10438;51.454;6.718;2023-09-30T07:28:34;51.53;;;22.33;;
20559;SDS011;10438;51.454;6.718;2023-09-30T07:31:00;47.03;;;22.63;;
20559;SDS011;10438;51.454;6.718;2023-09-30T07:33:26;41.57;;;21.47;;
20559;SDS011;10438;51.454;6.718;2023-09-30T07:35:51;47.93;;;21.60;;
20559;SDS011;10438;51.454;6.718;2023-09-30T07:38:17;42.67;;;21.93;;
20559;SDS011;10438;51.454;6.718;2023-09-30T07:40:43;41.37;;;20.60;;
20559;SDS011;10438;51.454;6.718;2023-09-30T07:43:08;36.10;;;17.87;;
20559;SDS011;10438;51.454;6.718;2023-09-30T07:45:35;32.58;;;15.43;;
20559;SDS011;10438;51.454;6.718;2023-09-30T07:48:00;25.33;;;14.52;;
20559;SDS011;10438;51.454;6.718;2023-09-30T07:50:29;25.77;;;14.18;;
20559;SDS011;10438;51.454;6.718;2023-09-30T07:52:54;22.80;;;13.85;;
20559;SDS011;10438;51.454;6.718;2023-09-30T07:55:20;29.23;;;15.68;;
20559;SDS011;10438;51.454;6.718;2023-09-30T07:57:46;30.30;;;16.70;;
20559;SDS011;10438;51.454;6.718;2023-09-30T08:00:11;28.45;;;15.48;;
20559;SDS011;10438;51.454;6.718;2023-09-30T08:02:41;30.10;;;15.80;;
20559;SDS011;10438;51.454;6.718;2023-09-30T08:05:07;32.13;;;16.40;;
20559;SDS011;10438;51.454;6.718;2023-09-30T08:07:33;32.57;;;16.23;;
20559;SDS011;10438;51.454;6.718;2023-09-30T08:09:59;31.53;;;17.00;;
20559;SDS011;10438;51.454;6.718;2023-09-30T08:12:25;39.90;;;18.43;;
20559;SDS011;10438;51.454;6.718;2023-09-30T08:14:50;33.23;;;17.77;;
20559;SDS011;10438;51.454;6.718;2023-09-30T08:17:19;33.03;;;16.63;;
20559;SDS011;10438;51.454;6.718;2023-09-30T08:19:45;33.90;;;20.27;;
20559;SDS011;10438;51.454;6.718;2023-09-30T08:22:12;36.37;;;20.20;;
20559;SDS011;10438;51.454;6.718;2023-09-30T08:24:38;43.93;;;26.43;;
20559;SDS011;10438;51.454;6.718;2023-09-30T08:27:04;52.17;;;25.17;;
20559;SDS011;10438;51.454;6.718;2023-09-30T08:29:32;43.93;;;21.50;;
20559;SDS011;10438;51.454;6.718;2023-09-30T08:32:00;38.22;;;21.10;;
20559;SDS011;10438;51.454;6.718;2023-09-30T08:34:26;38.93;;;20.17;;
20559;SDS011;10438;51.454;6.718;2023-09-30T08:36:52;29.77;;;18.13;;
20559;SDS011;10438;51.454;6.718;2023-09-30T08:39:17;34.00;;;16.75;;
20559;SDS011;10438;51.454;6.718;2023-09-30T08:41:43;28.08;;;17.63;;
20559;SDS011;10438;51.454;6.718;2023-09-30T08:44:10;27.63;;;15.23;;
20559;SDS011;10438;51.454;6.718;2023-09-30T08:46:36;30.10;;;15.30;;
20559;SDS011;10438;51.454;6.718;2023-09-30T08:49:03;27.75;;;15.13;;
20559;SDS011;10438;51.454;6.718;2023-09-30T08:51:29;24.92;;;14.13;;
20559;SDS011;10438;51.454;6.718;2023-09-30T08:53:56;24.88;;;14.05;;
20559;SDS011;10438;51.454;6.718;2023-09-30T08:56:24;20.73;;;12.43;;
20559;SDS011;10438;51.454;6.718;2023-09-30T08:58:53;25.83;;;12.23;;
20559;SDS011;10438;51.454;6.718;2023-09-30T09:01:24;21.60;;;11.45;;
20559;SDS011;10438;51.454;6.718;2023-09-30T09:03:50;23.02;;;11.95;;
20559;SDS011;10438;51.454;6.718;2023-09-30T09:06:18;22.02;;;11.82;;
20559;SDS011;10438;51.454;6.718;2023-09-30T09:08:45;20.70;;;10.60;;
20559;SDS011;10438;51.454;6.718;2023-09-30T09:11:12;19.95;;;11.15;;
20559;SDS011;10438;51.454;6.718;2023-09-30T09:14:12;18.27;;;10.40;;
20559;SDS011;10438;51.454;6.718;2023-09-30T09:16:32;18.30;;;10.23;;
20559;SDS011;10438;51.454;6.718;2023-09-30T09:18:57;18.67;;;10.25;;
20559;SDS011;10438;51.454;6.718;2023-09-30T09:21:23;17.60;;;8.82;;
20559;SDS011;10438;51.454;6.718;2023-09-30T09:23:51;17.05;;;10.23;;
20559;SDS011;10438;51.454;6.718;2023-09-30T09:26:24;22.92;;;10.63;;
20559;SDS011;10438;51.454;6.718;2023-09-30T09:28:56;18.60;;;9.35;;
20559;SDS011;10438;51.454;6.718;2023-09-30T09:31:23;22.38;;;8.63;;
20559;SDS011;10438;51.454;6.718;2023-09-30T09:33:50;14.02;;;7.53;;
20559;SDS011;10438;51.454;6.718;2023-09-30T09:36:17;16.45;;;7.20;;
20559;SDS011;10438;51.454;6.718;2023-09-30T09:38:51;19.02;;;8.57;;
20559;SDS011;10438;51.454;6.718;2023-09-30T09:41:19;16.65;;;6.85;;
20559;SDS011;10438;51.454;6.718;2023-09-30T09:43:45;21.90;;;7.53;;
20559;SDS011;10438;51.454;6.718;2023-09-30T09:46:13;14.40;;;7.25;;
20559;SDS011;10438;51.454;6.718;2023-09-30T09:48:39;14.52;;;7.10;;
20559;SDS011;10438;51.454;6.718;2023-09-30T09:51:05;11.45;;;6.60;;
20559;SDS011;10438;51.454;6.718;2023-09-30T09:53:34;15.30;;;6.20;;
20559;SDS011;10438;51.454;6.718;2023-09-30T09:56:03;12.35;;;4.78;;
20559;SDS011;10438;51.454;6.718;2023-09-30T09:58:33;10.73;;;4.70;;
20559;SDS011;10438;51.454;6.718;2023-09-30T10:01:00;16.20;;;5.10;;
20559;SDS011;10438;51.454;6.718;2023-09-30T10:03:26;13.27;;;5.90;;
20559;SDS011;10438;51.454;6.718;2023-09-30T10:05:52;13.18;;;5.80;;
20559;SDS011;10438;51.454;6.718;2023-09-30T10:08:18;12.10;;;5.45;;
20559;SDS011;10438;51.454;6.718;2023-09-30T10:10:47;14.43;;;6.70;;
20559;SDS011;10438;51.454;6.718;2023-09-30T10:21:37;11.48;;;5.35;;
20559;SDS011;10438;51.454;6.718;2023-09-30T10:27:14;13.60;;;4.57;;
20559;SDS011;10438;51.454;6.718;2023-09-30T10:35:19;16.73;;;5.28;;
20559;SDS011;10438;51.454;6.718;2023-09-30T10:37:45;10.27;;;4.50;;
20559;SDS011;10438;51.454;6.718;2023-09-30T10:40:27;11.95;;;4.47;;
20559;SDS011;10438;51.454;6.718;2023-09-30T10:42:54;15.93;;;4.70;;
20559;SDS011;10438;51.454;6.718;2023-09-30T10:51:00;12.25;;;4.65;;
20559;SDS011;10438;51.454;6.718;2023-09-30T10:53:47;9.70;;;3.92;;
20559;SDS011;10438;51.454;6.718;2023-09-30T10:56:14;13.15;;;4.72;;
20559;SDS011;10438;51.454;6.718;2023-09-30T10:58:41;12.60;;;6.20;;
20559;SDS011;10438;51.454;6.718;2023-09-30T11:01:11;12.68;;;5.43;;
20559;SDS011;10438;51.454;6.718;2023-09-30T11:03:38;11.45;;;4.75;;
20559;SDS011;10438;51.454;6.718;2023-09-30T11:06:04;7.68;;;3.30;;
20559;SDS011;10438;51.454;6.718;2023-09-30T11:08:30;8.07;;;3.35;;
20559;SDS011;10438;51.454;6.718;2023-09-30T11:10:58;8.88;;;3.28;;
20559;SDS011;10438;51.454;6.718;2023-09-30T11:13:30;10.60;;;3.30;;
20559;SDS011;10438;51.454;6.718;2023-09-30T11:16:03;9.20;;;3.40;;
20559;SDS011;10438;51.454;6.718;2023-09-30T11:18:35;10.27;;;3.42;;
20559;SDS011;10438;51.454;6.718;2023-09-30T11:21:10;11.30;;;3.72;;
20559;SDS011;10438;51.454;6.718;2023-09-30T11:23:37;7.82;;;2.90;;
20559;SDS011;10438;51.454;6.718;2023-09-30T11:26:04;12.35;;;3.20;;
20559;SDS011;10438;51.454;6.718;2023-09-30T11:28:36;8.52;;;3.78;;
20559;SDS011;10438;51.454;6.718;2023-09-30T11:31:07;22.35;;;13.07;;
20559;SDS011;10438;51.454;6.718;2023-09-30T11:33:56;12.45;;;3.70;;
20559;SDS011;10438;51.454;6.718;2023-09-30T11:36:26;12.25;;;5.03;;
20559;SDS011;10438;51.454;6.718;2023-09-30T11:38:51;10.27;;;3.60;;
20559;SDS011;10438;51.454;6.718;2023-09-30T11:41:20;11.27;;;4.13;;
20559;SDS011;10438;51.454;6.718;2023-09-30T11:44:03;8.90;;;3.15;;
20559;SDS011;10438;51.454;6.718;2023-09-30T11:46:49;10.98;;;4.50;;
20559;SDS011;10438;51.454;6.718;2023-09-30T11:49:24;8.95;;;3.70;;
20559;SDS011;10438;51.454;6.718;2023-09-30T11:51:52;10.13;;;3.80;;
20559;SDS011;10438;51.454;6.718;2023-09-30T11:54:18;10.25;;;3.95;;
20559;SDS011;10438;51.454;6.718;2023-09-30T11:56:43;8.80;;;3.55;;
20559;SDS011;10438;51.454;6.718;2023-09-30T11:59:10;10.10;;;4.38;;
20559;SDS011;10438;51.454;6.718;2023-09-30T12:01:36;12.20;;;3.97;;
20559;SDS011;10438;51.454;6.718;2023-09-30T12:04:03;12.30;;;4.05;;
20559;SDS011;10438;51.454;6.718;2023-09-30T12:06:31;16.52;;;3.85;;
20559;SDS011;10438;51.454;6.718;2023-09-30T12:08:56;11.68;;;3.20;;
20559;SDS011;10438;51.454;6.718;2023-09-30T12:11:22;8.30;;;3.17;;
20559;SDS011;10438;51.454;6.718;2023-09-30T12:13:49;10.52;;;3.50;;
20559;SDS011;10438;51.454;6.718;2023-09-30T12:16:15;8.75;;;4.15;;
20559;SDS011;10438;51.454;6.718;2023-09-30T12:18:44;9.00;;;4.68;;
20559;SDS011;10438;51.454;6.718;2023-09-30T12:21:11;11.00;;;5.10;;
20559;SDS011;10438;51.454;6.718;2023-09-30T12:23:38;12.85;;;4.22;;
20559;SDS011;10438;51.454;6.718;2023-09-30T12:26:04;8.60;;;3.55;;
20559;SDS011;10438;51.454;6.718;2023-09-30T12:28:33;12.75;;;4.10;;
20559;SDS011;10438;51.454;6.718;2023-09-30T12:30:59;10.27;;;3.80;;
20559;SDS011;10438;51.454;6.718;2023-09-30T12:33:29;10.77;;;3.92;;
20559;SDS011;10438;51.454;6.718;2023-09-30T12:35:56;7.55;;;3.38;;
20559;SDS011;10438;51.454;6.718;2023-09-30T12:38:23;7.28;;;2.95;;
20559;SDS011;10438;51.454;6.718;2023-09-30T12:40:50;8.27;;;3.45;;
20559;SDS011;10438;51.454;6.718;2023-09-30T12:43:17;10.25;;;3.03;;
20559;SDS011;10438;51.454;6.718;2023-09-30T12:45:42;8.10;;;2.50;;
20559;SDS011;10438;51.454;6.718;2023-09-30T12:48:10;11.90;;;3.10;;
20559;SDS011;10438;51.454;6.718;2023-09-30T12:50:36;9.50;;;2.60;;
20559;SDS011;10438;51.454;6.718;2023-09-30T12:53:01;8.63;;;2.83;;
20559;SDS011;10438;51.454;6.718;2023-09-30T12:55:27;7.22;;;2.78;;
20559;SDS011;10438;51.454;6.718;2023-09-30T12:57:52;11.48;;;3.40;;
20559;SDS011;10438;51.454;6.718;2023-09-30T13:00:19;8.98;;;3.45;;
20559;SDS011;10438;51.454;6.718;2023-09-30T13:02:47;10.25;;;2.55;;
20559;SDS011;10438;51.454;6.718;2023-09-30T13:05:13;6.57;;;2.35;;
20559;SDS011;10438;51.454;6.718;2023-09-30T13:07:39;5.85;;;2.30;;
20559;SDS011;10438;51.454;6.718;2023-09-30T13:10:05;6.63;;;2.10;;
20559;SDS011;10438;51.454;6.718;2023-09-30T13:12:33;8.65;;;2.40;;
20559;SDS011;10438;51.454;6.718;2023-09-30T13:15:01;8.45;;;2.70;;
20559;SDS011;10438;51.454;6.718;2023-09-30T13:17:27;9.98;;;3.03;;
20559;SDS011;10438;51.454;6.718;2023-09-30T13:19:54;6.70;;;3.03;;
20559;SDS011;10438;51.454;6.718;2023-09-30T13:22:19;7.65;;;2.63;;
20559;SDS011;10438;51.454;6.718;2023-09-30T13:24:46;6.45;;;2.55;;
20559;SDS011;10438;51.454;6.718;2023-09-30T13:27:11;8.40;;;2.72;;
20559;SDS011;10438;51.454;6.718;2023-09-30T13:29:37;7.93;;;2.78;;
20559;SDS011;10438;51.454;6.718;2023-09-30T13:32:03;11.23;;;2.50;;
20559;SDS011;10438;51.454;6.718;2023-09-30T13:34:29;8.05;;;3.03;;
20559;SDS011;10438;51.454;6.718;2023-09-30T13:36:54;8.38;;;2.78;;
20559;SDS011;10438;51.454;6.718;2023-09-30T13:39:21;12.63;;;2.83;;
20559;SDS011;10438;51.454;6.718;2023-09-30T13:41:46;7.57;;;3.03;;
20559;SDS011;10438;51.454;6.718;2023-09-30T13:44:12;10.45;;;3.78;;
20559;SDS011;10438;51.454;6.718;2023-09-30T13:46:38;9.57;;;2.75;;
20559;SDS011;10438;51.454;6.718;2023-09-30T13:49:04;8.38;;;3.63;;
20559;SDS011;10438;51.454;6.718;2023-09-30T13:51:29;7.30;;;2.90;;
20559;SDS011;10438;51.454;6.718;2023-09-30T13:53:55;9.43;;;3.30;;
20559;SDS011;10438;51.454;6.718;2023-09-30T13:56:21;7.13;;;2.60;;
20559;SDS011;10438;51.454;6.718;2023-09-30T13:58:46;9.05;;;3.60;;
20559;SDS011;10438;51.454;6.718;2023-09-30T14:01:13;9.98;;;3.13;;
20559;SDS011;10438;51.454;6.718;2023-09-30T14:03:39;6.30;;;2.97;;
20559;SDS011;10438;51.454;6.718;2023-09-30T14:06:09;10.65;;;3.08;;
20559;SDS011;10438;51.454;6.718;2023-09-30T14:08:36;11.70;;;3.40;;
20559;SDS011;10438;51.454;6.718;2023-09-30T14:11:02;9.85;;;3.00;;
20559;SDS011;10438;51.454;6.718;2023-09-30T14:13:27;9.60;;;3.00;;
20559;SDS011;10438;51.454;6.718;2023-09-30T14:15:53;10.57;;;3.03;;
20559;SDS011;10438;51.454;6.718;2023-09-30T14:18:18;8.98;;;3.22;;
20559;SDS011;10438;51.454;6.718;2023-09-30T14:20:44;7.93;;;3.20;;
20559;SDS011;10438;51.454;6.718;2023-09-30T14:23:10;14.63;;;3.72;;
20559;SDS011;10438;51.454;6.718;2023-09-30T14:25:36;9.35;;;3.28;;
20559;SDS011;10438;51.454;6.718;2023-09-30T14:28:02;9.00;;;3.55;;
20559;SDS011;10438;51.454;6.718;2023-09-30T14:30:28;10.55;;;3.33;;
20559;SDS011;10438;51.454;6.718;2023-09-30T14:32:54;8.43;;;3.75;;
20559;SDS011;10438;51.454;6.718;2023-09-30T14:35:19;11.02;;;3.10;;
20559;SDS011;10438;51.454;6.718;2023-09-30T14:37:45;7.28;;;2.97;;
20559;SDS011;10438;51.454;6.718;2023-09-30T14:40:10;10.05;;;4.35;;
20559;SDS011;10438;51.454;6.718;2023-09-30T14:42:37;7.88;;;3.13;;
20559;SDS011;10438;51.454;6.718;2023-09-30T14:45:03;8.63;;;3.03;;
20559;SDS011;10438;51.454;6.718;2023-09-30T14:47:28;8.73;;;3.35;;
20559;SDS011;10438;51.454;6.718;2023-09-30T14:49:54;7.13;;;3.22;;
20559;SDS011;10438;51.454;6.718;2023-09-30T14:52:19;10.85;;;3.70;;